Terminal Aerodrome Forecast
Issued by NWS

Home | Current Version | Previous Version | Graphics & Text | Print | Product List | Glossary On
Versions: 1 2 3 4 5 6 7 8 9 10 11 12 13 14 15 16 17 18 19 20 21 22
000
FTUS43 KGRB 182340
TAFCWA
TAF
KCWA 182340Z 1900/1924 09005KT P6SM -SHRA BKN040 OVC080
     FM190500 11004KT P6SM BKN035
     FM191700 14008KT P6SM BKN050=

USA.gov is the U.S. government's official web portal to all federal, state and local government web resources and services.